createdAt,value
2022-11-02T00:05:31.134Z,98125.34
2022-11-02T00:15:36.021Z,98128.19
2022-11-02T00:25:47.567Z,98133.13
2022-11-02T00:35:49.149Z,98151.09
2022-11-02T00:45:50.598Z,98154.97
2022-11-02T00:55:53.909Z,98149.19
2022-11-02T01:05:55.564Z,98151.50
2022-11-02T01:15:57.024Z,98164.00
2022-11-02T01:25:59.218Z,98151.47
2022-11-02T01:36:06.868Z,98161.00
2022-11-02T01:46:11.176Z,98166.34
2022-11-02T01:56:15.773Z,98146.75
2022-11-02T02:06:17.966Z,98150.91
2022-11-02T02:16:43.557Z,98155.16
2022-11-02T02:27:21.359Z,98173.00
2022-11-02T02:37:34.098Z,98172.84
2022-11-02T02:47:40.003Z,98179.72
2022-11-02T02:57:41.621Z,98176.00
2022-11-02T03:07:43.174Z,98177.63
2022-11-02T03:18:16.954Z,98186.00
2022-11-02T03:28:43.762Z,98202.94
2022-11-02T03:38:53.044Z,98191.06
2022-11-02T03:48:56.056Z,98197.88
2022-11-02T03:58:57.847Z,98196.97
2022-11-02T04:09:00.075Z,98208.97
2022-11-02T04:19:20.516Z,98180.34
2022-11-02T04:29:22.374Z,98189.06
2022-11-02T04:39:24.712Z,98206.59
2022-11-02T04:49:26.224Z,98221.75
2022-11-02T04:59:28.634Z,98233.34
2022-11-02T05:09:30.560Z,98226.16
2022-11-02T05:19:32.473Z,98215.78
2022-11-02T05:29:35.605Z,98218.25
2022-11-02T05:39:37.255Z,98233.22
2022-11-02T05:49:38.921Z,98222.22
2022-11-02T05:59:41.781Z,98245.31
2022-11-02T06:09:45.377Z,98257.03
2022-11-02T06:19:46.825Z,98257.09
2022-11-02T06:29:48.255Z,98273.28
2022-11-02T06:39:49.863Z,98289.47
2022-11-02T06:49:51.935Z,98300.41
2022-11-02T06:59:54.192Z,98322.19
2022-11-02T07:09:55.848Z,98333.75
2022-11-02T07:19:57.504Z,98334.63
2022-11-02T07:29:59.060Z,98348.19
2022-11-02T07:40:01.007Z,98339.66
2022-11-02T07:50:02.571Z,98349.31
2022-11-02T08:00:04.894Z,98352.09
2022-11-02T08:10:13.013Z,98348.47
2022-11-02T08:20:14.557Z,98353.03
2022-11-02T08:30:16.243Z,98367.16
2022-11-02T08:40:17.681Z,98362.38
2022-11-02T08:50:19.294Z,98360.22
2022-11-02T09:00:31.729Z,98358.69
2022-11-02T09:10:35.390Z,98360.66
2022-11-02T09:20:37.351Z,98357.44
2022-11-02T09:30:38.803Z,98358.63
2022-11-02T09:40:52.887Z,98363.09
2022-11-02T09:50:59.368Z,98358.41
2022-11-02T10:01:19.597Z,98358.81
2022-11-02T10:11:39.018Z,98356.13
2022-11-02T10:21:43.704Z,98351.47
2022-11-02T10:31:45.771Z,98351.06
2022-11-02T10:42:06.910Z,98349.97
2022-11-02T10:52:14.330Z,98357.22
2022-11-02T11:02:17.932Z,98354.41
2022-11-02T11:12:23.639Z,98347.94
2022-11-02T11:22:30.970Z,98342.84
2022-11-02T11:32:35.215Z,98341.19
2022-11-02T11:42:37.104Z,98328.19
2022-11-02T11:52:38.693Z,98330.94
2022-11-02T12:02:44.750Z,98327.19
2022-11-02T12:13:09.604Z,98323.59
2022-11-02T12:23:27.711Z,98322.56
2022-11-02T12:33:43.688Z,98310.66
2022-11-02T12:43:50.680Z,98314.09
2022-11-02T12:53:57.854Z,98319.94
2022-11-02T13:04:24.613Z,98313.22
2022-11-02T13:14:39.541Z,98304.94
2022-11-02T13:24:46.639Z,98297.28
2022-11-02T13:34:50.963Z,98280.72
2022-11-02T13:45:26.484Z,98285.38
2022-11-02T13:55:45.825Z,98272.81
2022-11-02T14:05:52.899Z,98275.69
2022-11-02T14:15:54.441Z,98273.22
2022-11-02T14:25:59.574Z,98264.81
2022-11-02T14:36:10.283Z,98275.50
2022-11-02T14:46:36.376Z,98269.22
2022-11-02T14:56:53.161Z,98265.84
2022-11-02T15:06:57.689Z,98265.09
2022-11-02T15:16:59.320Z,98267.19
2022-11-02T15:27:02.622Z,98274.34
2022-11-02T15:37:05.443Z,98266.34
2022-11-02T15:47:41.233Z,98274.47
2022-11-02T15:58:12.853Z,98257.06
2022-11-02T16:08:30.576Z,98260.63
2022-11-02T16:18:37.477Z,98267.28
2022-11-02T16:28:39.126Z,98266.00
2022-11-02T16:38:54.711Z,98280.13
2022-11-02T16:49:12.933Z,98274.88
2022-11-02T16:59:15.099Z,98278.66
2022-11-02T17:09:31.578Z,98273.00
2022-11-02T17:19:39.223Z,98270.72
2022-11-02T17:29:40.707Z,98272.06
2022-11-02T17:39:42.137Z,98275.88
2022-11-02T17:49:43.572Z,98271.72
2022-11-02T17:59:44.992Z,98267.53
2022-11-02T18:09:46.491Z,98271.78
2022-11-02T18:19:47.927Z,98249.38
2022-11-02T18:29:49.407Z,98248.75
2022-11-02T18:39:50.936Z,98241.09
2022-11-02T18:49:52.461Z,98239.09
2022-11-02T18:59:53.917Z,98223.09
2022-11-02T19:09:58.410Z,98216.81
2022-11-02T19:20:03.048Z,98204.88
2022-11-02T19:30:04.935Z,98201.25
2022-11-02T19:40:07.332Z,98200.97
2022-11-02T19:50:08.881Z,98205.69
2022-11-02T20:00:12.169Z,98190.94
2022-11-02T20:10:13.651Z,98192.13
2022-11-02T20:20:15.295Z,98189.63
2022-11-02T20:30:19.222Z,98188.84
2022-11-02T20:40:20.740Z,98179.13
2022-11-02T20:50:26.071Z,98183.16
2022-11-02T21:00:27.665Z,98188.66
2022-11-02T21:10:29.135Z,98182.56
2022-11-02T21:20:34.641Z,98173.22
2022-11-02T21:30:36.462Z,98174.34
2022-11-02T21:40:38.439Z,98185.91
2022-11-02T21:50:39.880Z,98172.50
2022-11-02T22:01:20.056Z,98149.28
2022-11-02T22:11:24.534Z,98151.44
2022-11-02T22:21:28.112Z,98154.31
2022-11-02T22:31:32.071Z,98153.75
2022-11-02T22:41:37.763Z,98142.75
2022-11-02T22:51:44.226Z,98129.81
2022-11-02T23:01:45.838Z,98130.19
2022-11-02T23:11:47.396Z,98117.47
2022-11-02T23:22:15.043Z,98114.34
2022-11-02T23:32:28.031Z,98116.75
2022-11-02T23:42:29.535Z,98099.59
2022-11-02T23:52:49.813Z,98081.88
